• Join FlightAware (Why Join?)
  • Login
  • US Flag 
01:08PM EDT


 

Airport Tracker/Info


-or-


 

Live Flight TrackerFlight Track Log ✈ TAM3210 ✈ 20-Aug-2013 ✈ SBSP / CGH - SBCF / CNF

Flight Track Log - Related Links

Times and Time Zones

All times are in EDT time to prevent confusion due to time zone crossing. See the TAM3210 flight status page for this flight to view local times or setup timezone preferences in your user account.

Time Position Orientation Groundspeed Altitude Reporting Facility
EDT Latitude Longitude Course Direction KTS MPH feet Rate Location/Type
06:34AM -23.6050 -46.6710 335° Northwest 156 180 3,300  Level FlightAware
06:34AM -23.5970 -46.6730 347° North 165 190 3,400 780 Climbing FlightAware
06:34AM -23.5840 -46.6640 32° Northeast 184 212 3,700 1,200 Climbing FlightAware
06:34AM -23.5830 -46.6600 75° East 186 214 3,900 2,280 Climbing FlightAware
06:35AM -23.5890 -46.6350 105° East 194 223 4,900 2,040 Climbing FlightAware
06:35AM -23.5980 -46.6170 119° Southeast 205 236 5,500 1,140 Climbing FlightAware
06:35AM -23.6040 -46.6020 114° Southeast 208 239 5,600 120 Climbing FlightAware
06:36AM -23.6110 -46.5830 112° Southeast 206 237 5,600  Level FlightAware
06:36AM -23.6120 -46.5760 99° East 209 241 5,600  Level FlightAware
06:36AM -23.6050 -46.5410 78° East 261 300 5,600 120 Level FlightAware
06:36AM -23.5990 -46.5210 72° East 271 312 5,700 1,620 Climbing FlightAware
06:37AM -23.5910 -46.4880 75° East 281 323 6,700 2,700 Climbing FlightAware
06:37AM -23.5840 -46.4600 75° East 283 326 7,700 3,060 Climbing FlightAware
06:38AM -23.5780 -46.4320 77° East 284 327 8,800 3,000 Climbing FlightAware
06:38AM -23.5730 -46.4110 75° East 284 327 9,500 1,980 Climbing FlightAware
06:38AM -23.5670 -46.3820 77° East 286 329 10,000 960 Climbing FlightAware
06:39AM -23.5550 -46.3330 75° East 298 343 10,400 840 Climbing FlightAware
06:39AM -23.5440 -46.3040 68° East 324 373 10,800 1,020 Climbing FlightAware
06:39AM -23.5360 -46.2950 46° Northeast 336 387 10,900 780 Climbing FlightAware
06:40AM -23.4790 -46.2730 19° North 381 438 11,400 1,200 Climbing FlightAware
06:40AM -23.4200 -46.2610 11° North 402 463 12,300 1,680 Climbing FlightAware
06:41AM -23.3590 -46.2450 14° North 415 478 13,300 1,560 Climbing FlightAware
06:41AM -23.2930 -46.2270 14° North 432 497 14,100 1,560 Climbing FlightAware
06:42AM -23.2340 -46.2060 18° North 432 497 15,000 1,740 Climbing FlightAware
06:43AM -23.1740 -46.1670 31° Northeast 437 503 16,000 1,560 Climbing FlightAware
06:43AM -23.1210 -46.1320 31° Northeast 454 522 16,700 1,260 Climbing FlightAware
06:44AM -23.0470 -46.0840 31° Northeast 467 537 17,500 1,200 Climbing FlightAware
06:44AM -22.9810 -46.0400 32° Northeast 470 541 18,200 1,200 Climbing FlightAware
06:45AM -22.9150 -45.9980 30° Northeast 485 558 18,900 1,200 Climbing FlightAware
06:45AM -22.8460 -45.9520 32° Northeast 492 566 19,600 1,200 Climbing FlightAware
06:46AM -22.7780 -45.9080 31° Northeast 492 566 20,300 1,080 Climbing FlightAware
06:47AM -22.7170 -45.8680 31° Northeast 506 582 20,800 960 Climbing FlightAware
06:47AM -22.6550 -45.8280 31° Northeast 507 583 21,300 1,080 Climbing FlightAware
06:48AM -22.5750 -45.7760 31° Northeast 511 588 22,100 1,140 Climbing FlightAware
06:48AM -22.5110 -45.7340 31° Northeast 523 602 22,700 1,080 Climbing FlightAware
06:49AM -22.4390 -45.6870 31° Northeast 526 605 23,300 1,200 Climbing FlightAware
06:49AM -22.3660 -45.6400 31° Northeast 527 606 24,100 1,020 Climbing FlightAware
06:50AM -22.2930 -45.5930 31° Northeast 533 613 24,600 840 Climbing FlightAware
06:51AM -22.2170 -45.5440 31° Northeast 531 611 25,100 780 Climbing FlightAware
06:51AM -22.1470 -45.4990 31° Northeast 543 625 25,500 780 Climbing FlightAware
06:52AM -22.0550 -45.4400 31° Northeast 547 629 26,100 720 Climbing FlightAware
06:52AM -21.9910 -45.3980 31° Northeast 544 626 26,400 780 Climbing FlightAware
06:53AM -21.9130 -45.3490 30° Northeast 544 626 27,000 480 Climbing FlightAware
06:53AM -21.8440 -45.3040 31° Northeast 548 631 27,000  Level FlightAware
06:54AM -21.7640 -45.2520 31° Northeast 547 629 27,000  Level FlightAware
06:55AM -21.6940 -45.2080 30° Northeast 309 356 27,000  Level FlightAware
06:55AM -21.6230 -45.1620 31° Northeast 547 629 27,000  Level FlightAware
06:56AM -21.5170 -45.0960 30° Northeast 549 632 27,000  Level FlightAware
06:57AM -21.4160 -45.0300 31° Northeast 549 632 27,000  Level FlightAware
06:58AM -21.3160 -44.9670 30° Northeast 549 632 27,000  Level FlightAware
06:58AM -21.2520 -44.9260 31° Northeast 549 632 27,000  Level FlightAware
06:59AM -21.1710 -44.8750 30° Northeast 547 629 27,000  Level FlightAware
06:59AM -21.0990 -44.8290 31° Northeast 547 629 27,000  Level FlightAware
07:00AM -21.0250 -44.7830 30° Northeast 548 631 27,000 -420 Level FlightAware
07:01AM -20.9280 -44.7410 22° Northeast 550 633 26,500 -1,200 Descending FlightAware
07:01AM -20.8570 -44.7110 22° Northeast 550 633 25,600 -2,340 Descending FlightAware
07:02AM -20.7500 -44.6660 21° North 526 605 23,600 -2,760 Descending FlightAware
07:02AM -20.6740 -44.6330 22° Northeast 504 580 22,200 -2,880 Descending FlightAware
07:03AM -20.5810 -44.5940 21° North 486 559 20,400 -2,580 Descending FlightAware
07:04AM -20.4980 -44.5590 22° Northeast 474 545 19,000 -2,400 Descending FlightAware
07:04AM -20.4370 -44.5320 23° Northeast 470 541 17,600 -2,580 Descending FlightAware
07:05AM -20.3560 -44.4980 21° North 459 528 16,000 -2,280 Descending FlightAware
07:05AM -20.2990 -44.4750 21° North 441 507 15,000 -1,380 Descending FlightAware
07:06AM -20.2330 -44.4470 22° Northeast 406 467 14,500 -780 Descending FlightAware
07:06AM -20.1760 -44.4220 22° Northeast 376 433 14,100 -720 Descending FlightAware
07:07AM -20.1200 -44.3990 21° North 348 400 13,700 -600 Descending FlightAware
07:08AM -20.0710 -44.3780 22° Northeast 323 372 13,400 -720 Descending FlightAware
07:08AM -20.0220 -44.3570 22° Northeast 309 356 12,900 -960 Descending FlightAware
07:09AM -19.9700 -44.3350 22° Northeast 303 349 12,200 -900 Descending FlightAware
07:09AM -19.9380 -44.3220 21° North 303 349 12,000 -300 Descending FlightAware
07:10AM -19.9180 -44.3150 18° North 305 351 12,000  Level FlightAware
07:10AM -19.8820 -44.3180 356° North 305 351 12,000  Level FlightAware
07:11AM -19.8360 -44.3260 351° North 304 350 12,000  Level FlightAware
07:11AM -19.7840 -44.3340 352° North 303 349 12,000  Level FlightAware
07:12AM -19.7350 -44.3410 352° North 303 349 12,000 -120 Level FlightAware
07:12AM -19.7020 -44.3360 North 295 339 11,900 -900 Descending FlightAware
07:13AM -19.6570 -44.3260 12° North 290 334 11,100 -1,500 Descending FlightAware
07:13AM -19.6030 -44.3130 13° North 283 326 10,100 -1,680 Descending FlightAware
07:14AM -19.5830 -44.3080 13° North 287 330 9,600 -1,920 Descending FlightAware
07:14AM -19.5570 -44.3020 12° North 287 330 9,000 -1,800 Descending FlightAware
07:14AM -19.5320 -44.2960 13° North 287 330 8,400 -1,860 Descending FlightAware
07:15AM -19.5130 -44.2860 26° Northeast 289 333 7,900 -2,100 Descending FlightAware
07:15AM -19.5090 -44.2830 35° Northeast 288 331 7,700 -1,500 Descending FlightAware
07:15AM -19.4900 -44.2630 45° Northeast 283 326 7,300 -1,080 Descending FlightAware
07:15AM -19.4630 -44.2320 47° Northeast 258 297 6,800 -840 Descending FlightAware
07:16AM -19.4470 -44.2150 45° Northeast 242 278 6,600 -600 Descending FlightAware
07:16AM -19.4440 -44.2090 62° Northeast 234 269 6,500 -780 Descending FlightAware
07:16AM -19.4420 -44.2030 71° East 231 266 6,400 -780 Descending FlightAware
07:16AM -19.4420 -44.1890 90° East 225 259 6,300 -600 Descending FlightAware
07:17AM -19.4480 -44.1670 106° East 211 243 6,100 -780 Descending FlightAware
07:17AM -19.4540 -44.1490 109° East 203 234 5,800 -900 Descending FlightAware
07:17AM -19.4590 -44.1350 111° Southeast 202 232 5,600 -1,320 Descending FlightAware
07:17AM -19.4620 -44.1300 122° Southeast 201 231 5,400 -1,200 Descending FlightAware
07:17AM -19.4670 -44.1240 131° Southeast 199 229 5,300 -1,020 Descending FlightAware
07:18AM -19.4820 -44.1100 139° Southeast 198 228 4,900 -900 Descending FlightAware
07:18AM -19.4950 -44.0970 137° Southeast 192 221 4,700 -300 Descending FlightAware
07:18AM -19.5070 -44.0850 137° Southeast 193 222 4,700  Level FlightAware
07:19AM -19.5180 -44.0760 142° Southeast 194 223 4,700  Level FlightAware
07:19AM -19.5310 -44.0630 137° Southeast 194 223 4,700 -540 Level FlightAware
07:19AM -19.5410 -44.0540 140° Southeast 185 213 4,400 -1,080 Descending FlightAware
07:20AM -19.5550 -44.0420 141° Southeast 173 199 4,100 -900 Descending FlightAware
07:20AM -19.5660 -44.0310 137° Southeast 159 183 3,800 -780 Descending FlightAware
07:20AM -19.5760 -44.0220 140° Southeast 149 171 3,600 -780 Descending FlightAware
07:21AM -19.5860 -44.0120 137° Southeast 140 161 3,300 -840 Descending FlightAware
07:21AM -19.5910 -44.0080 143° Southeast 139 160 3,200 -600 Descending FlightAware
07:21AM -19.6000 -44.0000 140° Southeast 136 157 3,000 -660 Descending FlightAware
07:21AM -19.6130 -43.9880 139° Southeast 136 157 2,700 -840 Descending FlightAware
07:22AM -19.6220 -43.9790 137° Southeast 136 157 2,400 -900 Descending FlightAware
07:22AM -19.6310 -43.9710 140° Southeast 88 101 -7,200 Descending FlightAware